sensor_id;sensor_type;location;lat;lon;timestamp;temperature;humidity
56542;DHT22;42438;53.174;6.730;2022-09-27T00:02:09;10.10;99.90
56542;DHT22;42438;53.174;6.730;2022-09-27T00:04:40;10.00;99.90
56542;DHT22;42438;53.174;6.730;2022-09-27T00:07:11;9.90;99.90
56542;DHT22;42438;53.174;6.730;2022-09-27T00:09:41;10.00;99.90
56542;DHT22;42438;53.174;6.730;2022-09-27T00:12:12;9.90;99.90
56542;DHT22;42438;53.174;6.730;2022-09-27T00:14:43;9.90;99.90
56542;DHT22;42438;53.174;6.730;2022-09-27T00:17:13;9.80;99.90
56542;DHT22;42438;53.174;6.730;2022-09-27T00:19:44;9.80;99.90
56542;DHT22;42438;53.174;6.730;2022-09-27T00:22:14;9.80;99.90
56542;DHT22;42438;53.174;6.730;2022-09-27T00:24:45;9.80;99.90
56542;DHT22;42438;53.174;6.730;2022-09-27T00:27:17;10.00;99.90
56542;DHT22;42438;53.174;6.730;2022-09-27T00:29:47;10.00;99.90
56542;DHT22;42438;53.174;6.730;2022-09-27T00:32:18;9.70;99.90
56542;DHT22;42438;53.174;6.730;2022-09-27T00:34:49;9.70;99.90
56542;DHT22;42438;53.174;6.730;2022-09-27T00:37:20;9.60;99.90
56542;DHT22;42438;53.174;6.730;2022-09-27T00:39:51;9.70;99.90
56542;DHT22;42438;53.174;6.730;2022-09-27T00:42:21;9.90;99.90
56542;DHT22;42438;53.174;6.730;2022-09-27T00:44:59;9.70;99.90
56542;DHT22;42438;53.174;6.730;2022-09-27T00:47:46;9.90;99.90
56542;DHT22;42438;53.174;6.730;2022-09-27T00:50:24;9.60;99.90
56542;DHT22;42438;53.174;6.730;2022-09-27T00:55:30;9.80;99.90
56542;DHT22;42438;53.174;6.730;2022-09-27T00:58:02;9.70;99.90
56542;DHT22;42438;53.174;6.730;2022-09-27T01:00:35;9.80;99.90
56542;DHT22;42438;53.174;6.730;2022-09-27T01:03:08;9.60;99.90
56542;DHT22;42438;53.174;6.730;2022-09-27T01:05:42;9.90;99.90
56542;DHT22;42438;53.174;6.730;2022-09-27T01:08:13;9.90;99.90
56542;DHT22;42438;53.174;6.730;2022-09-27T01:10:54;9.90;99.90
56542;DHT22;42438;53.174;6.730;2022-09-27T01:13:39;10.00;99.90
56542;DHT22;42438;53.174;6.730;2022-09-27T01:16:23;9.70;99.90
56542;DHT22;42438;53.174;6.730;2022-09-27T01:19:17;9.70;99.90
56542;DHT22;42438;53.174;6.730;2022-09-27T01:22:11;9.70;99.90
56542;DHT22;42438;53.174;6.730;2022-09-27T01:30:25;9.80;99.90
56542;DHT22;42438;53.174;6.730;2022-09-27T01:36:01;9.70;99.90
56542;DHT22;42438;53.174;6.730;2022-09-27T01:44:03;9.60;99.90
56542;DHT22;42438;53.174;6.730;2022-09-27T01:46:40;9.70;99.90
56542;DHT22;42438;53.174;6.730;2022-09-27T01:49:23;9.60;99.90
56542;DHT22;42438;53.174;6.730;2022-09-27T01:52:01;9.40;99.90
56542;DHT22;42438;53.174;6.730;2022-09-27T01:54:42;9.60;99.90
56542;DHT22;42438;53.174;6.730;2022-09-27T01:57:19;9.50;99.90
56542;DHT22;42438;53.174;6.730;2022-09-27T01:59:57;9.70;99.90
56542;DHT22;42438;53.174;6.730;2022-09-27T02:02:32;9.70;99.90
56542;DHT22;42438;53.174;6.730;2022-09-27T02:05:07;9.70;99.90
56542;DHT22;42438;53.174;6.730;2022-09-27T02:07:45;9.60;99.90
56542;DHT22;42438;53.174;6.730;2022-09-27T02:10:22;9.60;99.90
56542;DHT22;42438;53.174;6.730;2022-09-27T02:13:00;9.60;99.90
56542;DHT22;42438;53.174;6.730;2022-09-27T02:15:41;9.70;99.90
56542;DHT22;42438;53.174;6.730;2022-09-27T02:18:27;9.70;99.90
56542;DHT22;42438;53.174;6.730;2022-09-27T02:21:00;9.60;99.90
56542;DHT22;42438;53.174;6.730;2022-09-27T02:23:39;9.80;99.90
56542;DHT22;42438;53.174;6.730;2022-09-27T02:26:18;9.70;99.90
56542;DHT22;42438;53.174;6.730;2022-09-27T02:28:54;9.70;99.90
56542;DHT22;42438;53.174;6.730;2022-09-27T02:31:26;9.60;99.90
56542;DHT22;42438;53.174;6.730;2022-09-27T02:34:03;9.60;99.90
56542;DHT22;42438;53.174;6.730;2022-09-27T02:36:36;9.60;99.90
56542;DHT22;42438;53.174;6.730;2022-09-27T02:39:07;9.60;99.90
56542;DHT22;42438;53.174;6.730;2022-09-27T02:41:38;9.60;99.90
56542;DHT22;42438;53.174;6.730;2022-09-27T02:44:10;9.40;99.90
56542;DHT22;42438;53.174;6.730;2022-09-27T03:00:53;9.40;99.90
56542;DHT22;42438;53.174;6.730;2022-09-27T03:03:32;9.50;99.90
56542;DHT22;42438;53.174;6.730;2022-09-27T03:06:10;9.50;99.90
56542;DHT22;42438;53.174;6.730;2022-09-27T03:08:42;9.30;99.90
56542;DHT22;42438;53.174;6.730;2022-09-27T03:11:13;9.50;99.90
56542;DHT22;42438;53.174;6.730;2022-09-27T03:13:44;9.50;99.90
56542;DHT22;42438;53.174;6.730;2022-09-27T03:16:15;9.40;99.90
56542;DHT22;42438;53.174;6.730;2022-09-27T03:18:46;9.40;99.90
56542;DHT22;42438;53.174;6.730;2022-09-27T03:21:16;9.30;99.90
56542;DHT22;42438;53.174;6.730;2022-09-27T03:23:47;9.40;99.90
56542;DHT22;42438;53.174;6.730;2022-09-27T03:26:18;9.60;99.90
56542;DHT22;42438;53.174;6.730;2022-09-27T03:28:48;9.40;99.90
56542;DHT22;42438;53.174;6.730;2022-09-27T03:31:19;9.60;99.90
56542;DHT22;42438;53.174;6.730;2022-09-27T03:33:50;9.60;99.90
56542;DHT22;42438;53.174;6.730;2022-09-27T03:36:20;9.70;99.90
56542;DHT22;42438;53.174;6.730;2022-09-27T03:38:51;9.60;99.90
56542;DHT22;42438;53.174;6.730;2022-09-27T03:41:22;9.40;99.90
56542;DHT22;42438;53.174;6.730;2022-09-27T03:43:53;9.50;99.90
56542;DHT22;42438;53.174;6.730;2022-09-27T03:46:27;9.40;99.90
56542;DHT22;42438;53.174;6.730;2022-09-27T03:48:57;9.20;99.90
56542;DHT22;42438;53.174;6.730;2022-09-27T03:51:28;9.40;99.90
56542;DHT22;42438;53.174;6.730;2022-09-27T03:53:59;9.50;99.90
56542;DHT22;42438;53.174;6.730;2022-09-27T03:56:29;9.10;99.90
56542;DHT22;42438;53.174;6.730;2022-09-27T03:59:00;9.70;99.90
56542;DHT22;42438;53.174;6.730;2022-09-27T04:01:31;9.30;99.90
56542;DHT22;42438;53.174;6.730;2022-09-27T04:04:01;9.20;99.90
56542;DHT22;42438;53.174;6.730;2022-09-27T04:06:32;9.20;99.90
56542;DHT22;42438;53.174;6.730;2022-09-27T04:09:04;9.30;99.90
56542;DHT22;42438;53.174;6.730;2022-09-27T04:11:34;9.30;99.90
56542;DHT22;42438;53.174;6.730;2022-09-27T04:14:05;9.10;99.90
56542;DHT22;42438;53.174;6.730;2022-09-27T04:16:38;9.10;99.90
56542;DHT22;42438;53.174;6.730;2022-09-27T04:19:09;9.40;99.90
56542;DHT22;42438;53.174;6.730;2022-09-27T04:21:40;9.40;99.90
56542;DHT22;42438;53.174;6.730;2022-09-27T04:24:11;9.20;99.90
56542;DHT22;42438;53.174;6.730;2022-09-27T04:26:41;9.40;99.90
56542;DHT22;42438;53.174;6.730;2022-09-27T04:29:12;9.40;99.90
56542;DHT22;42438;53.174;6.730;2022-09-27T04:31:43;9.40;99.90
56542;DHT22;42438;53.174;6.730;2022-09-27T04:34:14;9.50;99.90
56542;DHT22;42438;53.174;6.730;2022-09-27T04:36:45;9.50;99.90
56542;DHT22;42438;53.174;6.730;2022-09-27T04:39:15;9.20;99.90
56542;DHT22;42438;53.174;6.730;2022-09-27T04:41:46;9.20;99.90
56542;DHT22;42438;53.174;6.730;2022-09-27T04:44:17;9.30;99.90
56542;DHT22;42438;53.174;6.730;2022-09-27T04:46:47;9.50;99.90
56542;DHT22;42438;53.174;6.730;2022-09-27T04:49:18;9.20;99.90
56542;DHT22;42438;53.174;6.730;2022-09-27T04:51:48;9.20;99.90
56542;DHT22;42438;53.174;6.730;2022-09-27T04:54:19;9.20;99.90
56542;DHT22;42438;53.174;6.730;2022-09-27T04:56:50;9.70;99.90
56542;DHT22;42438;53.174;6.730;2022-09-27T04:59:20;9.20;99.90
56542;DHT22;42438;53.174;6.730;2022-09-27T05:01:51;9.20;99.90
56542;DHT22;42438;53.174;6.730;2022-09-27T05:04:22;9.30;99.90
56542;DHT22;42438;53.174;6.730;2022-09-27T05:06:53;9.20;99.90
56542;DHT22;42438;53.174;6.730;2022-09-27T05:09:23;9.10;99.90
56542;DHT22;42438;53.174;6.730;2022-09-27T05:11:54;9.20;99.90
56542;DHT22;42438;53.174;6.730;2022-09-27T05:14:25;9.20;99.90
56542;DHT22;42438;53.174;6.730;2022-09-27T05:16:56;9.10;99.90
56542;DHT22;42438;53.174;6.730;2022-09-27T05:19:27;9.30;99.90
56542;DHT22;42438;53.174;6.730;2022-09-27T05:21:58;9.30;99.90
56542;DHT22;42438;53.174;6.730;2022-09-27T05:24:28;9.50;99.90
56542;DHT22;42438;53.174;6.730;2022-09-27T05:27:02;9.50;99.90
56542;DHT22;42438;53.174;6.730;2022-09-27T05:29:33;9.20;99.90
56542;DHT22;42438;53.174;6.730;2022-09-27T05:32:07;9.20;99.90
56542;DHT22;42438;53.174;6.730;2022-09-27T05:34:37;9.40;99.90
56542;DHT22;42438;53.174;6.730;2022-09-27T05:37:08;9.40;99.90
56542;DHT22;42438;53.174;6.730;2022-09-27T05:39:39;9.20;99.90
56542;DHT22;42438;53.174;6.730;2022-09-27T05:42:10;9.10;99.90
56542;DHT22;42438;53.174;6.730;2022-09-27T05:44:41;9.30;99.90
56542;DHT22;42438;53.174;6.730;2022-09-27T05:47:16;9.20;99.90
56542;DHT22;42438;53.174;6.730;2022-09-27T05:49:47;9.20;99.90
56542;DHT22;42438;53.174;6.730;2022-09-27T05:52:17;9.40;99.90
56542;DHT22;42438;53.174;6.730;2022-09-27T05:54:48;9.10;99.90
56542;DHT22;42438;53.174;6.730;2022-09-27T05:57:18;9.00;99.90
56542;DHT22;42438;53.174;6.730;2022-09-27T05:59:49;9.40;99.90
56542;DHT22;42438;53.174;6.730;2022-09-27T06:02:20;9.30;99.90
56542;DHT22;42438;53.174;6.730;2022-09-27T06:04:50;9.30;99.90
56542;DHT22;42438;53.174;6.730;2022-09-27T06:07:22;9.30;99.90
56542;DHT22;42438;53.174;6.730;2022-09-27T06:09:52;9.10;99.90
56542;DHT22;42438;53.174;6.730;2022-09-27T06:12:23;9.40;99.90
56542;DHT22;42438;53.174;6.730;2022-09-27T06:14:53;9.40;99.90
56542;DHT22;42438;53.174;6.730;2022-09-27T06:17:24;9.10;99.90
56542;DHT22;42438;53.174;6.730;2022-09-27T06:19:55;9.30;99.90
56542;DHT22;42438;53.174;6.730;2022-09-27T06:22:25;9.50;99.90
56542;DHT22;42438;53.174;6.730;2022-09-27T06:24:56;9.50;99.90
56542;DHT22;42438;53.174;6.730;2022-09-27T06:27:27;9.30;99.90
56542;DHT22;42438;53.174;6.730;2022-09-27T06:29:57;9.20;99.90
56542;DHT22;42438;53.174;6.730;2022-09-27T06:32:28;9.30;99.90
56542;DHT22;42438;53.174;6.730;2022-09-27T06:34:59;9.60;99.90
56542;DHT22;42438;53.174;6.730;2022-09-27T06:37:29;9.60;99.90
56542;DHT22;42438;53.174;6.730;2022-09-27T06:40:00;9.50;99.90
56542;DHT22;42438;53.174;6.730;2022-09-27T06:42:31;9.30;99.90
56542;DHT22;42438;53.174;6.730;2022-09-27T06:45:02;9.50;99.90
56542;DHT22;42438;53.174;6.730;2022-09-27T06:47:36;9.40;99.90
56542;DHT22;42438;53.174;6.730;2022-09-27T06:50:07;9.60;99.90
56542;DHT22;42438;53.174;6.730;2022-09-27T06:52:46;9.30;99.90
56542;DHT22;42438;53.174;6.730;2022-09-27T06:55:17;9.50;99.90
56542;DHT22;42438;53.174;6.730;2022-09-27T06:57:47;9.50;99.90
56542;DHT22;42438;53.174;6.730;2022-09-27T07:00:37;9.50;99.90
56542;DHT22;42438;53.174;6.730;2022-09-27T07:03:09;9.40;99.90
56542;DHT22;42438;53.174;6.730;2022-09-27T07:05:41;9.40;99.90
56542;DHT22;42438;53.174;6.730;2022-09-27T07:08:11;9.40;99.90
56542;DHT22;42438;53.174;6.730;2022-09-27T07:10:42;9.50;99.90
56542;DHT22;42438;53.174;6.730;2022-09-27T07:13:13;9.60;99.90
56542;DHT22;42438;53.174;6.730;2022-09-27T07:15:43;9.50;99.90
56542;DHT22;42438;53.174;6.730;2022-09-27T07:18:14;9.50;99.90
56542;DHT22;42438;53.174;6.730;2022-09-27T07:20:45;9.60;99.90
56542;DHT22;42438;53.174;6.730;2022-09-27T07:23:16;9.80;99.90
56542;DHT22;42438;53.174;6.730;2022-09-27T07:25:46;9.80;99.90
56542;DHT22;42438;53.174;6.730;2022-09-27T07:28:18;9.60;99.90
56542;DHT22;42438;53.174;6.730;2022-09-27T07:30:53;9.70;99.90
56542;DHT22;42438;53.174;6.730;2022-09-27T07:33:24;9.90;99.90
56542;DHT22;42438;53.174;6.730;2022-09-27T07:35:55;9.80;99.90
56542;DHT22;42438;53.174;6.730;2022-09-27T07:38:26;10.20;99.90
56542;DHT22;42438;53.174;6.730;2022-09-27T07:40:57;10.40;99.90
56542;DHT22;42438;53.174;6.730;2022-09-27T07:43:28;10.10;99.90
56542;DHT22;42438;53.174;6.730;2022-09-27T07:45:59;10.10;99.90
56542;DHT22;42438;53.174;6.730;2022-09-27T07:48:29;10.50;99.90
56542;DHT22;42438;53.174;6.730;2022-09-27T07:51:00;10.20;99.90
56542;DHT22;42438;53.174;6.730;2022-09-27T07:53:31;10.40;99.90
56542;DHT22;42438;53.174;6.730;2022-09-27T07:56:01;10.40;99.90
56542;DHT22;42438;53.174;6.730;2022-09-27T07:58:32;10.40;99.90
56542;DHT22;42438;53.174;6.730;2022-09-27T08:01:03;10.70;99.90
56542;DHT22;42438;53.174;6.730;2022-09-27T08:03:33;10.40;99.90
56542;DHT22;42438;53.174;6.730;2022-09-27T08:06:04;10.60;99.90
56542;DHT22;42438;53.174;6.730;2022-09-27T08:08:35;10.60;99.90
56542;DHT22;42438;53.174;6.730;2022-09-27T08:11:14;10.90;99.90
56542;DHT22;42438;53.174;6.730;2022-09-27T08:13:45;10.70;99.90
56542;DHT22;42438;53.174;6.730;2022-09-27T08:16:15;11.10;99.90
56542;DHT22;42438;53.174;6.730;2022-09-27T08:18:46;11.20;99.90
56542;DHT22;42438;53.174;6.730;2022-09-27T08:21:17;11.00;99.90
56542;DHT22;42438;53.174;6.730;2022-09-27T08:23:47;11.10;99.90
56542;DHT22;42438;53.174;6.730;2022-09-27T08:26:18;11.20;99.90
56542;DHT22;42438;53.174;6.730;2022-09-27T08:28:49;11.10;99.90
56542;DHT22;42438;53.174;6.730;2022-09-27T08:31:19;10.90;99.90
56542;DHT22;42438;53.174;6.730;2022-09-27T08:33:50;10.90;99.90
56542;DHT22;42438;53.174;6.730;2022-09-27T08:36:22;10.70;99.90
56542;DHT22;42438;53.174;6.730;2022-09-27T08:38:53;11.00;99.90
56542;DHT22;42438;53.174;6.730;2022-09-27T08:50:29;11.10;99.90
56542;DHT22;42438;53.174;6.730;2022-09-27T08:55:48;11.20;99.90
56542;DHT22;42438;53.174;6.730;2022-09-27T08:58:28;11.30;99.90
56542;DHT22;42438;53.174;6.730;2022-09-27T09:01:01;11.30;99.90
56542;DHT22;42438;53.174;6.730;2022-09-27T09:03:34;11.30;99.90
56542;DHT22;42438;53.174;6.730;2022-09-27T09:12:01;12.00;99.90
56542;DHT22;42438;53.174;6.730;2022-09-27T09:26:04;11.70;99.90
56542;DHT22;42438;53.174;6.730;2022-09-27T09:28:42;11.70;99.90
56542;DHT22;42438;53.174;6.730;2022-09-27T09:34:11;11.80;99.90
56542;DHT22;42438;53.174;6.730;2022-09-27T09:36:49;11.80;99.90
56542;DHT22;42438;53.174;6.730;2022-09-27T09:39:27;11.80;99.90
56542;DHT22;42438;53.174;6.730;2022-09-27T09:42:07;11.80;99.90
56542;DHT22;42438;53.174;6.730;2022-09-27T09:47:44;11.50;99.90
56542;DHT22;42438;53.174;6.730;2022-09-27T09:50:19;11.40;99.90
56542;DHT22;42438;53.174;6.730;2022-09-27T09:53:14;11.50;99.90
56542;DHT22;42438;53.174;6.730;2022-09-27T09:56:00;11.30;99.90
56542;DHT22;42438;53.174;6.730;2022-09-27T10:04:14;11.10;99.90
56542;DHT22;42438;53.174;6.730;2022-09-27T10:06:46;11.10;99.90
56542;DHT22;42438;53.174;6.730;2022-09-27T10:09:22;11.00;99.90
56542;DHT22;42438;53.174;6.730;2022-09-27T10:11:54;10.90;99.90
56542;DHT22;42438;53.174;6.730;2022-09-27T10:14:25;10.80;99.90
56542;DHT22;42438;53.174;6.730;2022-09-27T10:17:00;10.70;99.90
56542;DHT22;42438;53.174;6.730;2022-09-27T10:19:34;10.80;99.90
56542;DHT22;42438;53.174;6.730;2022-09-27T10:22:17;10.80;99.90
56542;DHT22;42438;53.174;6.730;2022-09-27T10:27:28;10.90;99.90
56542;DHT22;42438;53.174;6.730;2022-09-27T10:30:25;11.00;99.90
56542;DHT22;42438;53.174;6.730;2022-09-27T10:32:59;11.00;99.90
56542;DHT22;42438;53.174;6.730;2022-09-27T10:35:35;11.00;99.90
56542;DHT22;42438;53.174;6.730;2022-09-27T10:38:20;11.00;99.90
56542;DHT22;42438;53.174;6.730;2022-09-27T10:40:53;11.10;99.90
56542;DHT22;42438;53.174;6.730;2022-09-27T10:43:32;11.00;99.90
56542;DHT22;42438;53.174;6.730;2022-09-27T10:48:37;11.10;99.90
56542;DHT22;42438;53.174;6.730;2022-09-27T10:51:24;11.10;99.90
56542;DHT22;42438;53.174;6.730;2022-09-27T10:53:56;11.20;99.90
56542;DHT22;42438;53.174;6.730;2022-09-27T10:56:33;11.30;99.90
56542;DHT22;42438;53.174;6.730;2022-09-27T10:59:04;11.40;99.90
56542;DHT22;42438;53.174;6.730;2022-09-27T11:01:45;11.50;99.90
56542;DHT22;42438;53.174;6.730;2022-09-27T11:04:29;11.60;99.90
56542;DHT22;42438;53.174;6.730;2022-09-27T11:07:18;11.80;99.90
56542;DHT22;42438;53.174;6.730;2022-09-27T11:09:55;12.00;99.90
56542;DHT22;42438;53.174;6.730;2022-09-27T11:12:29;12.30;99.90
56542;DHT22;42438;53.174;6.730;2022-09-27T11:15:04;12.60;99.90
56542;DHT22;42438;53.174;6.730;2022-09-27T11:17:55;12.80;99.90
56542;DHT22;42438;53.174;6.730;2022-09-27T11:20:40;13.30;99.90
56542;DHT22;42438;53.174;6.730;2022-09-27T11:23:26;13.40;99.90
56542;DHT22;42438;53.174;6.730;2022-09-27T11:29:23;12.90;99.90
56542;DHT22;42438;53.174;6.730;2022-09-27T11:46:35;11.60;99.90
56542;DHT22;42438;53.174;6.730;2022-09-27T11:54:51;11.30;99.90
56542;DHT22;42438;53.174;6.730;2022-09-27T12:02:41;11.30;99.90
56542;DHT22;42438;53.174;6.730;2022-09-27T12:08:31;11.50;99.90
56542;DHT22;42438;53.174;6.730;2022-09-27T12:11:26;11.70;99.90
56542;DHT22;42438;53.174;6.730;2022-09-27T12:16:51;12.00;99.90
56542;DHT22;42438;53.174;6.730;2022-09-27T12:19:26;12.30;99.90
56542;DHT22;42438;53.174;6.730;2022-09-27T12:22:02;12.30;99.90
56542;DHT22;42438;53.174;6.730;2022-09-27T12:24:33;12.20;99.90
56542;DHT22;42438;53.174;6.730;2022-09-27T12:27:12;12.00;99.90
56542;DHT22;42438;53.174;6.730;2022-09-27T12:29:45;11.70;99.90
56542;DHT22;42438;53.174;6.730;2022-09-27T12:37:58;11.50;99.90
56542;DHT22;42438;53.174;6.730;2022-09-27T12:40:34;11.60;99.90
56542;DHT22;42438;53.174;6.730;2022-09-27T12:43:24;11.70;99.90
56542;DHT22;42438;53.174;6.730;2022-09-27T12:46:11;11.70;99.90
56542;DHT22;42438;53.174;6.730;2022-09-27T12:49:40;11.70;99.90
56542;DHT22;42438;53.174;6.730;2022-09-27T13:00:25;11.60;99.90
56542;DHT22;42438;53.174;6.730;2022-09-27T13:12:00;11.70;99.90
56542;DHT22;42438;53.174;6.730;2022-09-27T13:14:33;11.80;99.90
56542;DHT22;42438;53.174;6.730;2022-09-27T13:31:07;12.70;99.90
56542;DHT22;42438;53.174;6.730;2022-09-27T13:33:48;12.70;99.90
56542;DHT22;42438;53.174;6.730;2022-09-27T13:36:32;12.60;99.90
56542;DHT22;42438;53.174;6.730;2022-09-27T13:44:32;12.60;99.90
56542;DHT22;42438;53.174;6.730;2022-09-27T13:47:19;12.60;99.90
56542;DHT22;42438;53.174;6.730;2022-09-27T13:55:42;12.20;99.90
56542;DHT22;42438;53.174;6.730;2022-09-27T14:01:46;11.70;99.90
56542;DHT22;42438;53.174;6.730;2022-09-27T14:04:22;11.40;99.90
56542;DHT22;42438;53.174;6.730;2022-09-27T14:06:59;11.30;99.90
56542;DHT22;42438;53.174;6.730;2022-09-27T14:09:38;11.20;99.90
56542;DHT22;42438;53.174;6.730;2022-09-27T14:12:11;11.10;99.90
56542;DHT22;42438;53.174;6.730;2022-09-27T14:14:47;11.10;99.90
56542;DHT22;42438;53.174;6.730;2022-09-27T14:17:18;11.00;99.90
56542;DHT22;42438;53.174;6.730;2022-09-27T14:19:49;11.20;99.90
56542;DHT22;42438;53.174;6.730;2022-09-27T14:22:22;10.90;99.90
56542;DHT22;42438;53.174;6.730;2022-09-27T14:24:54;10.90;99.90
56542;DHT22;42438;53.174;6.730;2022-09-27T14:27:26;10.80;99.90
56542;DHT22;42438;53.174;6.730;2022-09-27T14:30:09;10.70;99.90
56542;DHT22;42438;53.174;6.730;2022-09-27T14:32:50;10.60;99.90
56542;DHT22;42438;53.174;6.730;2022-09-27T14:35:26;10.50;99.90
56542;DHT22;42438;53.174;6.730;2022-09-27T14:38:18;10.50;99.90
56542;DHT22;42438;53.174;6.730;2022-09-27T14:43:23;10.60;99.90
56542;DHT22;42438;53.174;6.730;2022-09-27T14:46:00;10.70;99.90
56542;DHT22;42438;53.174;6.730;2022-09-27T14:48:37;10.60;99.90
56542;DHT22;42438;53.174;6.730;2022-09-27T14:53:51;10.90;99.90
56542;DHT22;42438;53.174;6.730;2022-09-27T14:56:35;11.00;99.90
56542;DHT22;42438;53.174;6.730;2022-09-27T14:59:14;11.10;99.90
56542;DHT22;42438;53.174;6.730;2022-09-27T15:01:49;11.10;99.90
56542;DHT22;42438;53.174;6.730;2022-09-27T15:04:21;11.20;99.90
56542;DHT22;42438;53.174;6.730;2022-09-27T15:06:52;11.40;99.90
56542;DHT22;42438;53.174;6.730;2022-09-27T15:09:24;11.60;99.90
56542;DHT22;42438;53.174;6.730;2022-09-27T15:11:58;11.30;99.90
56542;DHT22;42438;53.174;6.730;2022-09-27T15:14:34;11.40;99.90
56542;DHT22;42438;53.174;6.730;2022-09-27T15:17:18;11.30;99.90
56542;DHT22;42438;53.174;6.730;2022-09-27T15:20:16;11.30;99.90
56542;DHT22;42438;53.174;6.730;2022-09-27T15:22:48;11.30;99.90
56542;DHT22;42438;53.174;6.730;2022-09-27T15:25:26;11.50;99.90
56542;DHT22;42438;53.174;6.730;2022-09-27T15:28:17;11.40;99.90
56542;DHT22;42438;53.174;6.730;2022-09-27T15:30:56;11.40;99.90
56542;DHT22;42438;53.174;6.730;2022-09-27T15:33:28;11.30;99.90
56542;DHT22;42438;53.174;6.730;2022-09-27T15:36:06;11.60;99.90
56542;DHT22;42438;53.174;6.730;2022-09-27T15:38:44;11.40;99.90
56542;DHT22;42438;53.174;6.730;2022-09-27T15:41:19;11.30;99.90
56542;DHT22;42438;53.174;6.730;2022-09-27T15:43:51;11.30;99.90
56542;DHT22;42438;53.174;6.730;2022-09-27T15:46:37;11.30;99.90
56542;DHT22;42438;53.174;6.730;2022-09-27T15:49:28;11.40;99.90
56542;DHT22;42438;53.174;6.730;2022-09-27T15:52:05;11.20;99.90
56542;DHT22;42438;53.174;6.730;2022-09-27T15:54:38;11.10;99.90
56542;DHT22;42438;53.174;6.730;2022-09-27T15:57:11;11.10;99.90
56542;DHT22;42438;53.174;6.730;2022-09-27T15:59:42;11.10;99.90
56542;DHT22;42438;53.174;6.730;2022-09-27T16:02:15;11.30;99.90
56542;DHT22;42438;53.174;6.730;2022-09-27T16:04:46;11.00;99.90
56542;DHT22;42438;53.174;6.730;2022-09-27T16:07:17;10.80;99.90
56542;DHT22;42438;53.174;6.730;2022-09-27T16:09:47;10.80;99.90
56542;DHT22;42438;53.174;6.730;2022-09-27T16:12:21;11.00;99.90
56542;DHT22;42438;53.174;6.730;2022-09-27T16:14:52;10.80;99.90
56542;DHT22;42438;53.174;6.730;2022-09-27T16:17:23;10.70;99.90
56542;DHT22;42438;53.174;6.730;2022-09-27T16:19:54;10.70;99.90
56542;DHT22;42438;53.174;6.730;2022-09-27T16:22:24;10.70;99.90
56542;DHT22;42438;53.174;6.730;2022-09-27T16:24:55;10.80;99.90
56542;DHT22;42438;53.174;6.730;2022-09-27T16:27:26;10.70;99.90
56542;DHT22;42438;53.174;6.730;2022-09-27T16:29:57;10.80;99.90
56542;DHT22;42438;53.174;6.730;2022-09-27T16:32:28;10.90;99.90
56542;DHT22;42438;53.174;6.730;2022-09-27T16:34:59;10.70;99.90
56542;DHT22;42438;53.174;6.730;2022-09-27T16:37:30;10.50;99.90
56542;DHT22;42438;53.174;6.730;2022-09-27T16:40:01;10.60;99.90
56542;DHT22;42438;53.174;6.730;2022-09-27T16:42:32;10.60;99.90
56542;DHT22;42438;53.174;6.730;2022-09-27T16:45:05;10.70;99.90
56542;DHT22;42438;53.174;6.730;2022-09-27T16:47:36;10.50;99.90
56542;DHT22;42438;53.174;6.730;2022-09-27T16:50:08;10.70;99.90
56542;DHT22;42438;53.174;6.730;2022-09-27T16:52:58;10.40;99.90
56542;DHT22;42438;53.174;6.730;2022-09-27T16:55:29;10.50;99.90
56542;DHT22;42438;53.174;6.730;2022-09-27T16:58:00;10.50;99.90
56542;DHT22;42438;53.174;6.730;2022-09-27T17:00:34;10.50;99.90
56542;DHT22;42438;53.174;6.730;2022-09-27T17:03:05;10.40;99.90
56542;DHT22;42438;53.174;6.730;2022-09-27T17:10:43;10.00;99.90
56542;DHT22;42438;53.174;6.730;2022-09-27T17:13:14;9.90;99.90
56542;DHT22;42438;53.174;6.730;2022-09-27T17:15:45;9.90;99.90
56542;DHT22;42438;53.174;6.730;2022-09-27T17:18:16;9.90;99.90
56542;DHT22;42438;53.174;6.730;2022-09-27T17:20:47;9.80;99.90
56542;DHT22;42438;53.174;6.730;2022-09-27T17:23:18;9.70;99.90
56542;DHT22;42438;53.174;6.730;2022-09-27T17:28:21;9.60;99.90
56542;DHT22;42438;53.174;6.730;2022-09-27T17:30:52;9.50;99.90
56542;DHT22;42438;53.174;6.730;2022-09-27T17:33:25;9.30;99.90
56542;DHT22;42438;53.174;6.730;2022-09-27T17:36:00;9.30;99.90
56542;DHT22;42438;53.174;6.730;2022-09-27T17:38:31;9.30;99.90
56542;DHT22;42438;53.174;6.730;2022-09-27T17:41:05;9.50;99.90
56542;DHT22;42438;53.174;6.730;2022-09-27T17:46:09;9.10;99.90
56542;DHT22;42438;53.174;6.730;2022-09-27T17:48:39;9.00;99.90
56542;DHT22;42438;53.174;6.730;2022-09-27T17:51:29;9.00;99.90
56542;DHT22;42438;53.174;6.730;2022-09-27T17:54:01;8.90;99.90
56542;DHT22;42438;53.174;6.730;2022-09-27T17:56:36;8.80;99.90
56542;DHT22;42438;53.174;6.730;2022-09-27T17:59:08;8.70;99.90
56542;DHT22;42438;53.174;6.730;2022-09-27T18:01:39;8.70;99.90
56542;DHT22;42438;53.174;6.730;2022-09-27T18:04:13;8.70;99.90
56542;DHT22;42438;53.174;6.730;2022-09-27T18:06:45;8.60;99.90
56542;DHT22;42438;53.174;6.730;2022-09-27T18:09:16;8.60;99.90
56542;DHT22;42438;53.174;6.730;2022-09-27T18:11:48;8.50;99.90
56542;DHT22;42438;53.174;6.730;2022-09-27T18:14:25;8.60;99.90
56542;DHT22;42438;53.174;6.730;2022-09-27T18:16:59;8.50;99.90
56542;DHT22;42438;53.174;6.730;2022-09-27T18:19:29;8.50;99.90
56542;DHT22;42438;53.174;6.730;2022-09-27T18:22:00;8.40;99.90
56542;DHT22;42438;53.174;6.730;2022-09-27T18:24:30;8.30;99.90
56542;DHT22;42438;53.174;6.730;2022-09-27T18:27:01;8.40;99.90
56542;DHT22;42438;53.174;6.730;2022-09-27T18:29:33;8.30;99.90
56542;DHT22;42438;53.174;6.730;2022-09-27T18:32:04;8.30;99.90
56542;DHT22;42438;53.174;6.730;2022-09-27T18:34:34;8.30;99.90
56542;DHT22;42438;53.174;6.730;2022-09-27T18:37:05;8.20;99.90
56542;DHT22;42438;53.174;6.730;2022-09-27T18:39:36;8.30;99.90
56542;DHT22;42438;53.174;6.730;2022-09-27T18:42:07;8.20;99.90
56542;DHT22;42438;53.174;6.730;2022-09-27T18:44:38;8.20;99.90
56542;DHT22;42438;53.174;6.730;2022-09-27T18:47:09;8.10;99.90
56542;DHT22;42438;53.174;6.730;2022-09-27T18:49:39;8.20;99.90
56542;DHT22;42438;53.174;6.730;2022-09-27T18:52:10;8.20;99.90
56542;DHT22;42438;53.174;6.730;2022-09-27T18:54:41;8.20;99.90
56542;DHT22;42438;53.174;6.730;2022-09-27T18:57:12;8.10;99.90
56542;DHT22;42438;53.174;6.730;2022-09-27T18:59:43;8.10;99.90
56542;DHT22;42438;53.174;6.730;2022-09-27T19:02:18;8.10;99.90
56542;DHT22;42438;53.174;6.730;2022-09-27T19:04:48;8.00;99.90
56542;DHT22;42438;53.174;6.730;2022-09-27T19:07:19;7.90;99.90
56542;DHT22;42438;53.174;6.730;2022-09-27T19:09:50;8.00;99.90
56542;DHT22;42438;53.174;6.730;2022-09-27T19:12:21;8.00;99.90
56542;DHT22;42438;53.174;6.730;2022-09-27T19:14:52;8.00;99.90
56542;DHT22;42438;53.174;6.730;2022-09-27T19:17:22;8.00;99.90
56542;DHT22;42438;53.174;6.730;2022-09-27T19:19:53;8.00;99.90
56542;DHT22;42438;53.174;6.730;2022-09-27T19:22:24;8.00;99.90